sensor_id;sensor_type;location;lat;lon;timestamp;temperature;humidity
25688;DHT22;17407;51.120;3.702;2024-01-07T00:00:02;6.50;99.90
25688;DHT22;17407;51.120;3.702;2024-01-07T00:02:27;6.30;99.90
25688;DHT22;17407;51.120;3.702;2024-01-07T00:04:53;6.30;99.90
25688;DHT22;17407;51.120;3.702;2024-01-07T00:07:19;6.20;99.90
25688;DHT22;17407;51.120;3.702;2024-01-07T00:09:46;6.20;99.90
25688;DHT22;17407;51.120;3.702;2024-01-07T00:12:11;6.20;99.90
25688;DHT22;17407;51.120;3.702;2024-01-07T00:14:37;6.20;99.90
25688;DHT22;17407;51.120;3.702;2024-01-07T00:17:03;6.30;99.90
25688;DHT22;17407;51.120;3.702;2024-01-07T00:19:32;6.20;99.90
25688;DHT22;17407;51.120;3.702;2024-01-07T00:21:58;6.40;99.90
25688;DHT22;17407;51.120;3.702;2024-01-07T00:24:23;6.40;99.90
25688;DHT22;17407;51.120;3.702;2024-01-07T00:26:51;6.30;99.90
25688;DHT22;17407;51.120;3.702;2024-01-07T00:29:17;6.20;99.90
25688;DHT22;17407;51.120;3.702;2024-01-07T00:31:42;6.30;99.90
25688;DHT22;17407;51.120;3.702;2024-01-07T00:34:08;6.20;99.90
25688;DHT22;17407;51.120;3.702;2024-01-07T00:36:34;6.30;99.90
25688;DHT22;17407;51.120;3.702;2024-01-07T00:38:59;6.20;99.90
25688;DHT22;17407;51.120;3.702;2024-01-07T00:41:25;6.10;99.90
25688;DHT22;17407;51.120;3.702;2024-01-07T00:43:51;6.10;99.90
25688;DHT22;17407;51.120;3.702;2024-01-07T00:46:16;6.30;99.90
25688;DHT22;17407;51.120;3.702;2024-01-07T00:48:42;6.30;99.90
25688;DHT22;17407;51.120;3.702;2024-01-07T00:51:08;6.10;99.90
25688;DHT22;17407;51.120;3.702;2024-01-07T00:53:34;6.10;99.90
25688;DHT22;17407;51.120;3.702;2024-01-07T00:55:59;6.00;99.90
25688;DHT22;17407;51.120;3.702;2024-01-07T00:58:25;6.00;99.90
25688;DHT22;17407;51.120;3.702;2024-01-07T01:00:51;6.10;99.90
25688;DHT22;17407;51.120;3.702;2024-01-07T01:03:19;6.10;99.90
25688;DHT22;17407;51.120;3.702;2024-01-07T01:05:45;6.20;99.90
25688;DHT22;17407;51.120;3.702;2024-01-07T01:08:10;6.10;99.90
25688;DHT22;17407;51.120;3.702;2024-01-07T01:10:36;6.10;99.90
25688;DHT22;17407;51.120;3.702;2024-01-07T01:13:02;6.00;99.90
25688;DHT22;17407;51.120;3.702;2024-01-07T01:15:27;6.00;99.90
25688;DHT22;17407;51.120;3.702;2024-01-07T01:17:53;6.00;99.90
25688;DHT22;17407;51.120;3.702;2024-01-07T01:20:19;6.00;99.90
25688;DHT22;17407;51.120;3.702;2024-01-07T01:22:44;6.10;99.90
25688;DHT22;17407;51.120;3.702;2024-01-07T01:25:10;5.90;99.90
25688;DHT22;17407;51.120;3.702;2024-01-07T01:27:37;6.00;99.90
25688;DHT22;17407;51.120;3.702;2024-01-07T01:30:04;5.90;99.90
25688;DHT22;17407;51.120;3.702;2024-01-07T01:32:30;5.90;99.90
25688;DHT22;17407;51.120;3.702;2024-01-07T01:34:56;5.90;99.90
25688;DHT22;17407;51.120;3.702;2024-01-07T01:37:22;5.70;99.90
25688;DHT22;17407;51.120;3.702;2024-01-07T01:39:47;5.70;99.90
25688;DHT22;17407;51.120;3.702;2024-01-07T01:42:13;5.70;99.90
25688;DHT22;17407;51.120;3.702;2024-01-07T01:44:39;5.70;99.90
25688;DHT22;17407;51.120;3.702;2024-01-07T01:47:06;5.60;99.90
25688;DHT22;17407;51.120;3.702;2024-01-07T01:49:32;5.80;99.90
25688;DHT22;17407;51.120;3.702;2024-01-07T01:51:58;5.60;99.90
25688;DHT22;17407;51.120;3.702;2024-01-07T01:54:24;5.70;99.90
25688;DHT22;17407;51.120;3.702;2024-01-07T01:56:50;5.80;99.90
25688;DHT22;17407;51.120;3.702;2024-01-07T01:59:16;5.70;99.90
25688;DHT22;17407;51.120;3.702;2024-01-07T02:01:42;5.70;99.90
25688;DHT22;17407;51.120;3.702;2024-01-07T02:04:09;5.70;99.90
25688;DHT22;17407;51.120;3.702;2024-01-07T02:06:35;5.90;99.90
25688;DHT22;17407;51.120;3.702;2024-01-07T02:09:01;5.70;99.90
25688;DHT22;17407;51.120;3.702;2024-01-07T02:11:27;5.60;99.90
25688;DHT22;17407;51.120;3.702;2024-01-07T02:13:53;5.50;99.90
25688;DHT22;17407;51.120;3.702;2024-01-07T02:16:18;5.50;99.90
25688;DHT22;17407;51.120;3.702;2024-01-07T02:18:45;5.60;99.90
25688;DHT22;17407;51.120;3.702;2024-01-07T02:21:12;5.50;99.90
25688;DHT22;17407;51.120;3.702;2024-01-07T02:23:38;5.50;99.90
25688;DHT22;17407;51.120;3.702;2024-01-07T02:26:04;5.60;99.90
25688;DHT22;17407;51.120;3.702;2024-01-07T02:28:31;5.50;99.90
25688;DHT22;17407;51.120;3.702;2024-01-07T02:30:57;5.50;99.90
25688;DHT22;17407;51.120;3.702;2024-01-07T02:33:22;5.40;99.90
25688;DHT22;17407;51.120;3.702;2024-01-07T02:35:48;5.40;99.90
25688;DHT22;17407;51.120;3.702;2024-01-07T02:38:14;5.40;99.90
25688;DHT22;17407;51.120;3.702;2024-01-07T02:40:40;5.50;99.90
25688;DHT22;17407;51.120;3.702;2024-01-07T02:43:05;5.50;99.90
25688;DHT22;17407;51.120;3.702;2024-01-07T02:45:31;5.40;99.90
25688;DHT22;17407;51.120;3.702;2024-01-07T02:47:56;5.40;99.90
25688;DHT22;17407;51.120;3.702;2024-01-07T02:50:22;5.50;99.90
25688;DHT22;17407;51.120;3.702;2024-01-07T02:52:48;5.30;99.90
25688;DHT22;17407;51.120;3.702;2024-01-07T02:55:14;5.50;99.90
25688;DHT22;17407;51.120;3.702;2024-01-07T02:57:39;5.30;99.90
25688;DHT22;17407;51.120;3.702;2024-01-07T03:00:05;5.30;99.90
25688;DHT22;17407;51.120;3.702;2024-01-07T03:02:31;5.30;99.90
25688;DHT22;17407;51.120;3.702;2024-01-07T03:04:57;5.30;99.90
25688;DHT22;17407;51.120;3.702;2024-01-07T03:07:23;5.40;99.90
25688;DHT22;17407;51.120;3.702;2024-01-07T03:09:49;5.40;99.90
25688;DHT22;17407;51.120;3.702;2024-01-07T03:12:16;5.40;99.90
25688;DHT22;17407;51.120;3.702;2024-01-07T03:14:41;5.40;99.90
25688;DHT22;17407;51.120;3.702;2024-01-07T03:17:07;5.30;99.90
25688;DHT22;17407;51.120;3.702;2024-01-07T03:19:33;5.30;99.90
25688;DHT22;17407;51.120;3.702;2024-01-07T03:21:59;5.50;99.90
25688;DHT22;17407;51.120;3.702;2024-01-07T03:24:25;5.20;99.90
25688;DHT22;17407;51.120;3.702;2024-01-07T03:26:51;5.30;99.90
25688;DHT22;17407;51.120;3.702;2024-01-07T03:29:16;5.30;99.90
25688;DHT22;17407;51.120;3.702;2024-01-07T03:31:42;5.30;99.90
25688;DHT22;17407;51.120;3.702;2024-01-07T03:34:08;5.50;99.90
25688;DHT22;17407;51.120;3.702;2024-01-07T03:36:33;5.30;99.90
25688;DHT22;17407;51.120;3.702;2024-01-07T03:38:59;5.50;99.90
25688;DHT22;17407;51.120;3.702;2024-01-07T03:41:25;5.40;99.90
25688;DHT22;17407;51.120;3.702;2024-01-07T03:43:51;5.30;99.90
25688;DHT22;17407;51.120;3.702;2024-01-07T03:46:18;5.30;99.90
25688;DHT22;17407;51.120;3.702;2024-01-07T03:48:44;5.40;99.90
25688;DHT22;17407;51.120;3.702;2024-01-07T03:51:10;5.30;99.90
25688;DHT22;17407;51.120;3.702;2024-01-07T03:53:36;5.40;99.90
25688;DHT22;17407;51.120;3.702;2024-01-07T03:56:02;5.30;99.90
25688;DHT22;17407;51.120;3.702;2024-01-07T03:58:27;5.30;99.90
25688;DHT22;17407;51.120;3.702;2024-01-07T04:00:53;5.30;99.90
25688;DHT22;17407;51.120;3.702;2024-01-07T04:03:18;5.30;99.90
25688;DHT22;17407;51.120;3.702;2024-01-07T04:05:44;5.40;99.90
25688;DHT22;17407;51.120;3.702;2024-01-07T04:08:11;5.40;99.90
25688;DHT22;17407;51.120;3.702;2024-01-07T04:10:37;5.50;99.90
25688;DHT22;17407;51.120;3.702;2024-01-07T04:13:04;5.40;99.90
25688;DHT22;17407;51.120;3.702;2024-01-07T04:15:30;5.40;99.90
25688;DHT22;17407;51.120;3.702;2024-01-07T04:17:56;5.30;99.90
25688;DHT22;17407;51.120;3.702;2024-01-07T04:20:22;5.30;99.90
25688;DHT22;17407;51.120;3.702;2024-01-07T04:22:48;5.30;99.90
25688;DHT22;17407;51.120;3.702;2024-01-07T04:25:13;5.30;99.90
25688;DHT22;17407;51.120;3.702;2024-01-07T04:27:39;5.30;99.90
25688;DHT22;17407;51.120;3.702;2024-01-07T04:30:05;5.50;99.90
25688;DHT22;17407;51.120;3.702;2024-01-07T04:32:32;5.30;99.90
25688;DHT22;17407;51.120;3.702;2024-01-07T04:34:57;5.20;99.90
25688;DHT22;17407;51.120;3.702;2024-01-07T04:37:24;5.30;99.90
25688;DHT22;17407;51.120;3.702;2024-01-07T04:39:49;5.20;99.90
25688;DHT22;17407;51.120;3.702;2024-01-07T04:42:16;5.20;99.90
25688;DHT22;17407;51.120;3.702;2024-01-07T04:44:42;5.20;99.90
25688;DHT22;17407;51.120;3.702;2024-01-07T04:47:28;5.10;99.90
25688;DHT22;17407;51.120;3.702;2024-01-07T04:49:54;5.10;99.90
25688;DHT22;17407;51.120;3.702;2024-01-07T04:52:21;5.10;99.90
25688;DHT22;17407;51.120;3.702;2024-01-07T04:54:46;5.20;99.90
25688;DHT22;17407;51.120;3.702;2024-01-07T04:57:12;5.20;99.90
25688;DHT22;17407;51.120;3.702;2024-01-07T04:59:38;5.20;99.90
25688;DHT22;17407;51.120;3.702;2024-01-07T05:02:03;5.10;99.90
25688;DHT22;17407;51.120;3.702;2024-01-07T05:04:29;5.40;99.90
25688;DHT22;17407;51.120;3.702;2024-01-07T05:06:54;5.10;99.90
25688;DHT22;17407;51.120;3.702;2024-01-07T05:09:20;5.20;99.90
25688;DHT22;17407;51.120;3.702;2024-01-07T05:11:46;5.30;99.90
25688;DHT22;17407;51.120;3.702;2024-01-07T05:14:11;5.20;99.90
25688;DHT22;17407;51.120;3.702;2024-01-07T05:16:37;5.20;99.90
25688;DHT22;17407;51.120;3.702;2024-01-07T05:19:03;5.30;99.90
25688;DHT22;17407;51.120;3.702;2024-01-07T05:21:29;5.30;99.90
25688;DHT22;17407;51.120;3.702;2024-01-07T05:23:54;5.10;99.90
25688;DHT22;17407;51.120;3.702;2024-01-07T05:26:21;5.10;99.90
25688;DHT22;17407;51.120;3.702;2024-01-07T05:28:46;5.20;99.90
25688;DHT22;17407;51.120;3.702;2024-01-07T05:31:16;5.20;99.90
25688;DHT22;17407;51.120;3.702;2024-01-07T05:33:42;5.10;99.90
25688;DHT22;17407;51.120;3.702;2024-01-07T05:36:08;5.10;99.90
25688;DHT22;17407;51.120;3.702;2024-01-07T05:38:34;5.30;99.90
25688;DHT22;17407;51.120;3.702;2024-01-07T05:40:59;5.30;99.90
25688;DHT22;17407;51.120;3.702;2024-01-07T05:43:25;5.10;99.90
25688;DHT22;17407;51.120;3.702;2024-01-07T05:45:50;5.10;99.90
25688;DHT22;17407;51.120;3.702;2024-01-07T05:48:16;5.10;99.90
25688;DHT22;17407;51.120;3.702;2024-01-07T05:50:42;5.10;99.90
25688;DHT22;17407;51.120;3.702;2024-01-07T05:53:07;5.10;99.90
25688;DHT22;17407;51.120;3.702;2024-01-07T05:55:33;5.10;99.90
25688;DHT22;17407;51.120;3.702;2024-01-07T05:57:59;5.10;99.90
25688;DHT22;17407;51.120;3.702;2024-01-07T06:00:24;5.10;99.90
25688;DHT22;17407;51.120;3.702;2024-01-07T06:02:50;5.30;99.90
25688;DHT22;17407;51.120;3.702;2024-01-07T06:05:16;5.10;99.90
25688;DHT22;17407;51.120;3.702;2024-01-07T06:07:41;5.10;99.90
25688;DHT22;17407;51.120;3.702;2024-01-07T06:10:07;5.10;99.90
25688;DHT22;17407;51.120;3.702;2024-01-07T06:12:33;5.10;99.90
25688;DHT22;17407;51.120;3.702;2024-01-07T06:14:58;5.00;99.90
25688;DHT22;17407;51.120;3.702;2024-01-07T06:17:24;5.20;99.90
25688;DHT22;17407;51.120;3.702;2024-01-07T06:19:50;5.20;99.90
25688;DHT22;17407;51.120;3.702;2024-01-07T06:22:15;5.20;99.90
25688;DHT22;17407;51.120;3.702;2024-01-07T06:24:41;5.10;99.90
25688;DHT22;17407;51.120;3.702;2024-01-07T06:27:07;5.00;99.90
25688;DHT22;17407;51.120;3.702;2024-01-07T06:29:33;5.10;99.90
25688;DHT22;17407;51.120;3.702;2024-01-07T06:31:59;5.20;99.90
25688;DHT22;17407;51.120;3.702;2024-01-07T06:34:24;5.00;99.90
25688;DHT22;17407;51.120;3.702;2024-01-07T06:36:50;5.00;99.90
25688;DHT22;17407;51.120;3.702;2024-01-07T06:39:18;5.10;99.90
25688;DHT22;17407;51.120;3.702;2024-01-07T06:41:44;5.00;99.90
25688;DHT22;17407;51.120;3.702;2024-01-07T06:44:09;5.10;99.90
25688;DHT22;17407;51.120;3.702;2024-01-07T06:46:35;5.20;99.90
25688;DHT22;17407;51.120;3.702;2024-01-07T06:49:01;5.10;99.90
25688;DHT22;17407;51.120;3.702;2024-01-07T06:51:27;5.10;99.90
25688;DHT22;17407;51.120;3.702;2024-01-07T06:53:52;5.10;99.90
25688;DHT22;17407;51.120;3.702;2024-01-07T06:56:18;5.10;99.90
25688;DHT22;17407;51.120;3.702;2024-01-07T06:58:44;5.20;99.90
25688;DHT22;17407;51.120;3.702;2024-01-07T07:01:10;5.10;99.90
25688;DHT22;17407;51.120;3.702;2024-01-07T07:03:35;4.90;99.90
25688;DHT22;17407;51.120;3.702;2024-01-07T07:06:01;5.10;99.90
25688;DHT22;17407;51.120;3.702;2024-01-07T07:08:27;4.90;99.90
25688;DHT22;17407;51.120;3.702;2024-01-07T07:10:52;5.00;99.90
25688;DHT22;17407;51.120;3.702;2024-01-07T07:13:18;5.10;99.90
25688;DHT22;17407;51.120;3.702;2024-01-07T07:15:43;5.00;99.90
25688;DHT22;17407;51.120;3.702;2024-01-07T07:18:09;5.00;99.90
25688;DHT22;17407;51.120;3.702;2024-01-07T07:20:35;5.10;99.90
25688;DHT22;17407;51.120;3.702;2024-01-07T07:23:00;5.00;99.90
25688;DHT22;17407;51.120;3.702;2024-01-07T07:25:26;4.90;99.90
25688;DHT22;17407;51.120;3.702;2024-01-07T07:27:52;5.00;99.90
25688;DHT22;17407;51.120;3.702;2024-01-07T07:30:18;5.00;99.90
25688;DHT22;17407;51.120;3.702;2024-01-07T07:32:44;4.90;99.90
25688;DHT22;17407;51.120;3.702;2024-01-07T07:35:12;5.00;99.90
25688;DHT22;17407;51.120;3.702;2024-01-07T07:37:38;4.90;99.90
25688;DHT22;17407;51.120;3.702;2024-01-07T07:40:04;5.10;99.90
25688;DHT22;17407;51.120;3.702;2024-01-07T07:42:29;5.00;99.90
25688;DHT22;17407;51.120;3.702;2024-01-07T07:44:55;4.90;99.90
25688;DHT22;17407;51.120;3.702;2024-01-07T07:47:21;4.90;99.90
25688;DHT22;17407;51.120;3.702;2024-01-07T07:49:46;5.00;99.90
25688;DHT22;17407;51.120;3.702;2024-01-07T07:52:12;5.00;99.90
25688;DHT22;17407;51.120;3.702;2024-01-07T07:54:39;5.00;99.90
25688;DHT22;17407;51.120;3.702;2024-01-07T07:57:05;5.00;99.90
25688;DHT22;17407;51.120;3.702;2024-01-07T07:59:31;5.00;99.90
25688;DHT22;17407;51.120;3.702;2024-01-07T08:01:56;5.00;99.90
25688;DHT22;17407;51.120;3.702;2024-01-07T08:04:22;5.00;99.90
25688;DHT22;17407;51.120;3.702;2024-01-07T08:06:48;5.00;99.90
25688;DHT22;17407;51.120;3.702;2024-01-07T08:09:13;5.20;99.90
25688;DHT22;17407;51.120;3.702;2024-01-07T08:11:39;5.20;99.90
25688;DHT22;17407;51.120;3.702;2024-01-07T08:14:05;5.10;99.90
25688;DHT22;17407;51.120;3.702;2024-01-07T08:16:31;4.90;99.90
25688;DHT22;17407;51.120;3.702;2024-01-07T08:18:57;5.10;99.90
25688;DHT22;17407;51.120;3.702;2024-01-07T08:21:23;5.10;99.90
25688;DHT22;17407;51.120;3.702;2024-01-07T08:23:49;5.20;99.90
25688;DHT22;17407;51.120;3.702;2024-01-07T08:26:21;4.90;99.90
25688;DHT22;17407;51.120;3.702;2024-01-07T08:28:46;4.90;99.90
25688;DHT22;17407;51.120;3.702;2024-01-07T08:31:12;4.80;99.90
25688;DHT22;17407;51.120;3.702;2024-01-07T08:33:38;4.90;99.90
25688;DHT22;17407;51.120;3.702;2024-01-07T08:36:04;5.10;99.90
25688;DHT22;17407;51.120;3.702;2024-01-07T08:38:30;4.90;99.90
25688;DHT22;17407;51.120;3.702;2024-01-07T08:40:55;4.90;99.90
25688;DHT22;17407;51.120;3.702;2024-01-07T08:43:21;4.90;99.90
25688;DHT22;17407;51.120;3.702;2024-01-07T08:45:47;4.80;99.90
25688;DHT22;17407;51.120;3.702;2024-01-07T08:48:13;4.90;99.90
25688;DHT22;17407;51.120;3.702;2024-01-07T08:50:38;4.90;99.90
25688;DHT22;17407;51.120;3.702;2024-01-07T08:53:04;4.90;99.90
25688;DHT22;17407;51.120;3.702;2024-01-07T08:55:30;4.90;99.90
25688;DHT22;17407;51.120;3.702;2024-01-07T08:57:56;5.00;99.90
25688;DHT22;17407;51.120;3.702;2024-01-07T09:00:22;4.90;99.90
25688;DHT22;17407;51.120;3.702;2024-01-07T09:02:52;5.00;99.90
25688;DHT22;17407;51.120;3.702;2024-01-07T09:05:18;4.90;99.90
25688;DHT22;17407;51.120;3.702;2024-01-07T09:07:43;4.90;99.90
25688;DHT22;17407;51.120;3.702;2024-01-07T09:10:09;4.90;99.90
25688;DHT22;17407;51.120;3.702;2024-01-07T09:12:37;5.10;99.90
25688;DHT22;17407;51.120;3.702;2024-01-07T09:15:04;4.90;99.90
25688;DHT22;17407;51.120;3.702;2024-01-07T09:17:34;4.90;99.90
25688;DHT22;17407;51.120;3.702;2024-01-07T09:20:00;4.90;99.90
25688;DHT22;17407;51.120;3.702;2024-01-07T09:22:26;5.00;99.90
25688;DHT22;17407;51.120;3.702;2024-01-07T09:24:52;4.80;99.90
25688;DHT22;17407;51.120;3.702;2024-01-07T09:27:20;4.80;99.90
25688;DHT22;17407;51.120;3.702;2024-01-07T09:29:46;4.80;99.90
25688;DHT22;17407;51.120;3.702;2024-01-07T09:32:11;4.80;99.90
25688;DHT22;17407;51.120;3.702;2024-01-07T09:34:37;4.80;99.90
25688;DHT22;17407;51.120;3.702;2024-01-07T09:37:03;4.90;99.90
25688;DHT22;17407;51.120;3.702;2024-01-07T09:39:28;4.80;99.90
25688;DHT22;17407;51.120;3.702;2024-01-07T09:41:55;4.90;99.90
25688;DHT22;17407;51.120;3.702;2024-01-07T09:44:21;5.00;99.90
25688;DHT22;17407;51.120;3.702;2024-01-07T09:46:46;4.90;99.90
25688;DHT22;17407;51.120;3.702;2024-01-07T09:49:17;4.80;99.90
25688;DHT22;17407;51.120;3.702;2024-01-07T09:51:45;4.80;99.90
25688;DHT22;17407;51.120;3.702;2024-01-07T09:54:13;4.70;99.90
25688;DHT22;17407;51.120;3.702;2024-01-07T09:56:50;4.70;99.90
25688;DHT22;17407;51.120;3.702;2024-01-07T09:59:16;4.70;99.90
25688;DHT22;17407;51.120;3.702;2024-01-07T10:01:43;4.80;99.90
25688;DHT22;17407;51.120;3.702;2024-01-07T10:04:11;4.50;99.90
25688;DHT22;17407;51.120;3.702;2024-01-07T10:06:36;4.70;99.90
25688;DHT22;17407;51.120;3.702;2024-01-07T10:09:03;4.80;99.90
25688;DHT22;17407;51.120;3.702;2024-01-07T10:11:31;4.70;99.90
25688;DHT22;17407;51.120;3.702;2024-01-07T10:13:59;4.50;99.90
25688;DHT22;17407;51.120;3.702;2024-01-07T10:16:25;4.60;99.90
25688;DHT22;17407;51.120;3.702;2024-01-07T10:18:51;4.80;99.90
25688;DHT22;17407;51.120;3.702;2024-01-07T10:21:17;4.80;99.90
25688;DHT22;17407;51.120;3.702;2024-01-07T10:23:42;4.70;99.90
25688;DHT22;17407;51.120;3.702;2024-01-07T10:26:09;4.60;99.90
25688;DHT22;17407;51.120;3.702;2024-01-07T10:28:34;4.60;99.90
25688;DHT22;17407;51.120;3.702;2024-01-07T10:31:00;4.80;99.90
25688;DHT22;17407;51.120;3.702;2024-01-07T10:33:31;4.60;99.90
25688;DHT22;17407;51.120;3.702;2024-01-07T10:36:04;4.60;99.90
25688;DHT22;17407;51.120;3.702;2024-01-07T10:38:31;4.70;99.90
25688;DHT22;17407;51.120;3.702;2024-01-07T10:40:59;4.80;99.90
25688;DHT22;17407;51.120;3.702;2024-01-07T10:43:29;4.70;99.90
25688;DHT22;17407;51.120;3.702;2024-01-07T10:45:55;4.80;99.90
25688;DHT22;17407;51.120;3.702;2024-01-07T10:48:21;5.00;99.90
25688;DHT22;17407;51.120;3.702;2024-01-07T10:50:50;4.80;99.90
25688;DHT22;17407;51.120;3.702;2024-01-07T10:53:21;4.90;99.90
25688;DHT22;17407;51.120;3.702;2024-01-07T10:55:54;4.70;99.90
25688;DHT22;17407;51.120;3.702;2024-01-07T10:58:20;4.80;99.90
25688;DHT22;17407;51.120;3.702;2024-01-07T11:00:47;4.70;99.90
25688;DHT22;17407;51.120;3.702;2024-01-07T11:09:35;4.70;99.90
25688;DHT22;17407;51.120;3.702;2024-01-07T11:11:55;4.70;99.90
25688;DHT22;17407;51.120;3.702;2024-01-07T11:14:54;4.80;99.90
25688;DHT22;17407;51.120;3.702;2024-01-07T11:19:59;4.80;99.90
25688;DHT22;17407;51.120;3.702;2024-01-07T11:22:26;5.00;99.90
25688;DHT22;17407;51.120;3.702;2024-01-07T11:25:01;5.10;99.90
25688;DHT22;17407;51.120;3.702;2024-01-07T11:27:31;4.80;99.90
25688;DHT22;17407;51.120;3.702;2024-01-07T11:30:17;4.90;99.90
25688;DHT22;17407;51.120;3.702;2024-01-07T11:32:45;4.70;99.90
25688;DHT22;17407;51.120;3.702;2024-01-07T11:35:13;4.70;99.90
25688;DHT22;17407;51.120;3.702;2024-01-07T11:37:38;4.70;99.90
25688;DHT22;17407;51.120;3.702;2024-01-07T11:40:06;5.00;99.90
25688;DHT22;17407;51.120;3.702;2024-01-07T11:42:32;4.70;99.90
25688;DHT22;17407;51.120;3.702;2024-01-07T11:44:58;4.90;99.90
25688;DHT22;17407;51.120;3.702;2024-01-07T11:47:24;4.70;99.90
25688;DHT22;17407;51.120;3.702;2024-01-07T11:49:51;5.00;99.90
25688;DHT22;17407;51.120;3.702;2024-01-07T11:52:17;4.80;99.90
25688;DHT22;17407;51.120;3.702;2024-01-07T11:54:43;4.80;99.90
25688;DHT22;17407;51.120;3.702;2024-01-07T11:57:10;4.70;99.90
25688;DHT22;17407;51.120;3.702;2024-01-07T11:59:36;4.60;99.90
25688;DHT22;17407;51.120;3.702;2024-01-07T12:02:03;4.70;99.90
25688;DHT22;17407;51.120;3.702;2024-01-07T12:04:33;4.60;99.90
25688;DHT22;17407;51.120;3.702;2024-01-07T12:06:59;4.70;99.90
25688;DHT22;17407;51.120;3.702;2024-01-07T12:09:26;4.70;99.90
25688;DHT22;17407;51.120;3.702;2024-01-07T12:11:52;4.70;99.90
25688;DHT22;17407;51.120;3.702;2024-01-07T12:14:18;4.70;99.90
25688;DHT22;17407;51.120;3.702;2024-01-07T12:16:45;4.60;99.90
25688;DHT22;17407;51.120;3.702;2024-01-07T12:19:11;4.70;99.90
25688;DHT22;17407;51.120;3.702;2024-01-07T12:21:36;4.80;99.90
25688;DHT22;17407;51.120;3.702;2024-01-07T12:24:03;4.70;99.90
25688;DHT22;17407;51.120;3.702;2024-01-07T12:26:30;4.60;99.90
25688;DHT22;17407;51.120;3.702;2024-01-07T12:28:58;4.70;99.90
25688;DHT22;17407;51.120;3.702;2024-01-07T12:31:33;4.60;99.90
25688;DHT22;17407;51.120;3.702;2024-01-07T12:33:59;4.70;99.90
25688;DHT22;17407;51.120;3.702;2024-01-07T12:36:26;4.70;99.90
25688;DHT22;17407;51.120;3.702;2024-01-07T12:38:52;4.60;99.90
25688;DHT22;17407;51.120;3.702;2024-01-07T12:41:22;4.90;99.90
25688;DHT22;17407;51.120;3.702;2024-01-07T12:43:48;4.60;99.90
25688;DHT22;17407;51.120;3.702;2024-01-07T12:46:15;4.70;99.90
25688;DHT22;17407;51.120;3.702;2024-01-07T12:48:40;4.70;99.90
25688;DHT22;17407;51.120;3.702;2024-01-07T12:51:06;4.60;99.90
25688;DHT22;17407;51.120;3.702;2024-01-07T12:53:31;4.60;99.90
25688;DHT22;17407;51.120;3.702;2024-01-07T12:55:57;4.70;99.90
25688;DHT22;17407;51.120;3.702;2024-01-07T12:58:23;4.80;99.90
25688;DHT22;17407;51.120;3.702;2024-01-07T13:00:49;4.80;99.90
25688;DHT22;17407;51.120;3.702;2024-01-07T13:03:17;4.80;99.90
25688;DHT22;17407;51.120;3.702;2024-01-07T13:05:44;4.60;99.90
25688;DHT22;17407;51.120;3.702;2024-01-07T13:08:11;4.60;99.90
25688;DHT22;17407;51.120;3.702;2024-01-07T13:10:38;4.60;99.90
25688;DHT22;17407;51.120;3.702;2024-01-07T13:13:03;4.70;99.90
25688;DHT22;17407;51.120;3.702;2024-01-07T13:15:29;4.60;99.90
25688;DHT22;17407;51.120;3.702;2024-01-07T13:17:55;4.70;99.90
25688;DHT22;17407;51.120;3.702;2024-01-07T13:20:20;4.60;99.90
25688;DHT22;17407;51.120;3.702;2024-01-07T13:22:46;4.70;99.90
25688;DHT22;17407;51.120;3.702;2024-01-07T13:25:12;4.60;99.90
25688;DHT22;17407;51.120;3.702;2024-01-07T13:27:38;4.80;99.90
25688;DHT22;17407;51.120;3.702;2024-01-07T13:30:04;4.80;99.90
25688;DHT22;17407;51.120;3.702;2024-01-07T13:32:31;4.70;99.90
25688;DHT22;17407;51.120;3.702;2024-01-07T13:35:05;4.80;99.90
25688;DHT22;17407;51.120;3.702;2024-01-07T13:37:31;4.70;99.90
25688;DHT22;17407;51.120;3.702;2024-01-07T13:39:56;4.60;99.90
25688;DHT22;17407;51.120;3.702;2024-01-07T13:42:22;4.60;99.90
25688;DHT22;17407;51.120;3.702;2024-01-07T13:44:48;4.50;99.90
25688;DHT22;17407;51.120;3.702;2024-01-07T13:47:14;4.70;99.90
25688;DHT22;17407;51.120;3.702;2024-01-07T13:49:43;4.60;99.90
25688;DHT22;17407;51.120;3.702;2024-01-07T13:52:10;4.50;99.90
25688;DHT22;17407;51.120;3.702;2024-01-07T13:54:36;4.60;99.90
25688;DHT22;17407;51.120;3.702;2024-01-07T13:57:03;4.60;99.90
25688;DHT22;17407;51.120;3.702;2024-01-07T13:59:29;4.50;99.90
25688;DHT22;17407;51.120;3.702;2024-01-07T14:01:55;4.50;99.90
25688;DHT22;17407;51.120;3.702;2024-01-07T14:04:23;4.40;99.90
25688;DHT22;17407;51.120;3.702;2024-01-07T14:06:56;4.60;99.90
25688;DHT22;17407;51.120;3.702;2024-01-07T14:09:22;4.40;99.90
25688;DHT22;17407;51.120;3.702;2024-01-07T14:11:47;4.40;99.90
25688;DHT22;17407;51.120;3.702;2024-01-07T14:14:13;4.30;99.90
25688;DHT22;17407;51.120;3.702;2024-01-07T14:16:39;4.40;99.90
25688;DHT22;17407;51.120;3.702;2024-01-07T14:19:06;4.50;99.90
25688;DHT22;17407;51.120;3.702;2024-01-07T14:21:32;4.60;99.90
25688;DHT22;17407;51.120;3.702;2024-01-07T14:23:58;4.40;99.90
25688;DHT22;17407;51.120;3.702;2024-01-07T14:26:23;4.40;99.90
25688;DHT22;17407;51.120;3.702;2024-01-07T14:28:52;4.40;99.90
25688;DHT22;17407;51.120;3.702;2024-01-07T14:31:18;4.40;99.90
25688;DHT22;17407;51.120;3.702;2024-01-07T14:33:44;4.50;99.90
25688;DHT22;17407;51.120;3.702;2024-01-07T14:36:10;4.50;99.90
25688;DHT22;17407;51.120;3.702;2024-01-07T14:38:45;4.50;99.90
25688;DHT22;17407;51.120;3.702;2024-01-07T14:41:15;4.40;99.90
25688;DHT22;17407;51.120;3.702;2024-01-07T14:43:41;4.50;99.90
25688;DHT22;17407;51.120;3.702;2024-01-07T14:46:07;4.40;99.90
25688;DHT22;17407;51.120;3.702;2024-01-07T14:48:34;4.40;99.90
25688;DHT22;17407;51.120;3.702;2024-01-07T14:51:00;4.40;99.90
25688;DHT22;17407;51.120;3.702;2024-01-07T14:53:26;4.40;99.90
25688;DHT22;17407;51.120;3.702;2024-01-07T14:55:54;4.40;99.90
25688;DHT22;17407;51.120;3.702;2024-01-07T14:58:19;4.40;99.90
25688;DHT22;17407;51.120;3.702;2024-01-07T15:00:46;4.40;99.90
25688;DHT22;17407;51.120;3.702;2024-01-07T15:03:13;4.40;99.90
25688;DHT22;17407;51.120;3.702;2024-01-07T15:05:39;4.40;99.90
25688;DHT22;17407;51.120;3.702;2024-01-07T15:08:06;4.50;99.90
25688;DHT22;17407;51.120;3.702;2024-01-07T15:10:32;4.30;99.90
25688;DHT22;17407;51.120;3.702;2024-01-07T15:12:58;4.30;99.90
25688;DHT22;17407;51.120;3.702;2024-01-07T15:15:24;4.30;99.90
25688;DHT22;17407;51.120;3.702;2024-01-07T15:17:55;4.30;99.90
25688;DHT22;17407;51.120;3.702;2024-01-07T15:20:21;4.30;99.90
25688;DHT22;17407;51.120;3.702;2024-01-07T15:22:47;4.20;99.90
25688;DHT22;17407;51.120;3.702;2024-01-07T15:25:14;4.20;99.90
25688;DHT22;17407;51.120;3.702;2024-01-07T15:27:40;4.20;99.90
25688;DHT22;17407;51.120;3.702;2024-01-07T15:30:06;4.10;99.90
25688;DHT22;17407;51.120;3.702;2024-01-07T15:32:33;4.10;99.90
25688;DHT22;17407;51.120;3.702;2024-01-07T15:34:59;4.20;99.90
25688;DHT22;17407;51.120;3.702;2024-01-07T15:37:25;4.40;99.90
25688;DHT22;17407;51.120;3.702;2024-01-07T15:39:50;4.40;99.90
25688;DHT22;17407;51.120;3.702;2024-01-07T15:42:17;4.20;99.90
25688;DHT22;17407;51.120;3.702;2024-01-07T15:44:43;4.20;99.90
25688;DHT22;17407;51.120;3.702;2024-01-07T15:47:09;4.20;99.90